createdAt,value
2022-08-31T00:02:41.010Z,1.41
2022-08-31T00:05:08.556Z,1.43
2022-08-31T00:07:35.219Z,1.35
2022-08-31T00:10:11.681Z,1.48
2022-08-31T00:12:38.218Z,1.34
2022-08-31T00:15:05.660Z,1.32
2022-08-31T00:17:32.228Z,1.59
2022-08-31T00:19:59.048Z,1.45
2022-08-31T00:22:25.599Z,1.45
2022-08-31T00:24:52.166Z,1.34
2022-08-31T00:27:18.788Z,1.54
2022-08-31T00:29:45.510Z,1.34
2022-08-31T00:32:12.423Z,1.41
2022-08-31T00:34:39.292Z,1.46
2022-08-31T00:37:06.116Z,1.48
2022-08-31T00:39:32.756Z,1.46
2022-08-31T00:41:59.498Z,1.23
2022-08-31T00:44:26.480Z,1.56
2022-08-31T00:46:53.291Z,1.42
2022-08-31T00:49:22.895Z,1.44
2022-08-31T00:51:55.771Z,1.45
2022-08-31T00:54:27.373Z,1.43
2022-08-31T00:56:54.764Z,1.39
2022-08-31T00:59:22.653Z,1.50
2022-08-31T01:01:49.506Z,1.62
2022-08-31T01:04:17.258Z,1.59
2022-08-31T01:06:44.752Z,1.30
2022-08-31T01:09:13.100Z,1.41
2022-08-31T01:11:41.252Z,1.30
2022-08-31T01:14:11.899Z,1.33
2022-08-31T01:16:42.413Z,1.48
2022-08-31T01:19:16.277Z,1.50
2022-08-31T01:21:55.380Z,1.39
2022-08-31T01:24:24.728Z,1.62
2022-08-31T01:26:55.375Z,1.49
2022-08-31T01:29:22.422Z,1.54
2022-08-31T01:31:49.093Z,1.45
2022-08-31T01:34:15.800Z,1.46
2022-08-31T01:36:44.282Z,1.54
2022-08-31T01:39:11.134Z,1.56
2022-08-31T01:41:43.503Z,1.61
2022-08-31T01:44:14.561Z,1.66
2022-08-31T01:46:41.369Z,1.62
2022-08-31T01:49:08.054Z,1.48
2022-08-31T01:51:35.267Z,1.46
2022-08-31T01:54:02.069Z,1.42
2022-08-31T01:56:30.934Z,1.35
2022-08-31T01:58:58.673Z,1.50
2022-08-31T02:01:34.352Z,1.51
2022-08-31T02:04:03.299Z,1.51
2022-08-31T02:06:30.671Z,1.38
2022-08-31T02:08:57.265Z,1.50
2022-08-31T02:11:24.379Z,1.57
2022-08-31T02:13:51.101Z,1.64
2022-08-31T02:16:18.015Z,1.59
2022-08-31T02:18:44.661Z,1.48
2022-08-31T02:21:13.650Z,1.52
2022-08-31T02:23:41.023Z,1.52
2022-08-31T02:26:07.681Z,1.56
2022-08-31T02:28:35.234Z,1.40
2022-08-31T02:31:01.939Z,1.62
2022-08-31T02:33:28.588Z,1.49
2022-08-31T02:35:55.313Z,1.58
2022-08-31T02:38:23.874Z,1.52
2022-08-31T02:40:51.512Z,1.62
2022-08-31T02:43:24.680Z,1.66
2022-08-31T02:45:53.812Z,1.57
2022-08-31T02:48:21.433Z,1.56
2022-08-31T02:50:49.992Z,1.45
2022-08-31T02:53:18.687Z,1.50
2022-08-31T02:55:45.409Z,1.49
2022-08-31T02:58:12.900Z,1.36
2022-08-31T03:00:40.653Z,1.56
2022-08-31T03:03:07.374Z,1.47
2022-08-31T03:05:34.065Z,1.37
2022-08-31T03:08:00.669Z,1.44
2022-08-31T03:10:27.228Z,1.36
2022-08-31T03:12:54.159Z,1.41
2022-08-31T03:15:23.024Z,1.45
2022-08-31T03:17:49.660Z,1.42
2022-08-31T03:20:17.233Z,1.44
2022-08-31T03:22:45.509Z,1.51
2022-08-31T03:25:12.590Z,1.34
2022-08-31T03:27:39.187Z,1.33
2022-08-31T03:30:08.534Z,1.10
2022-08-31T03:32:35.319Z,1.25
2022-08-31T03:35:02.678Z,1.28
2022-08-31T03:37:29.222Z,1.22
2022-08-31T03:39:55.881Z,1.15
2022-08-31T03:42:22.680Z,1.05
2022-08-31T03:44:49.736Z,1.08
2022-08-31T03:47:16.880Z,1.03
2022-08-31T03:49:43.984Z,1.13
2022-08-31T03:52:10.493Z,1.09
2022-08-31T03:54:37.364Z,0.91
2022-08-31T03:57:04.963Z,0.89
2022-08-31T03:59:31.599Z,0.99
2022-08-31T04:01:58.286Z,1.02
2022-08-31T04:04:24.894Z,0.97
2022-08-31T04:06:51.545Z,1.03
2022-08-31T04:09:18.349Z,1.00
2022-08-31T04:11:45.797Z,1.06
2022-08-31T04:14:15.473Z,1.04
2022-08-31T04:16:43.929Z,1.02
2022-08-31T04:19:11.430Z,1.00
2022-08-31T04:21:38.444Z,1.01
2022-08-31T04:24:06.104Z,0.91
2022-08-31T04:26:34.561Z,0.79
2022-08-31T04:29:03.629Z,0.81
2022-08-31T04:31:30.936Z,0.79
2022-08-31T04:33:58.256Z,0.77
2022-08-31T04:36:26.128Z,0.91
2022-08-31T04:38:55.965Z,0.73
2022-08-31T04:41:23.954Z,0.81
2022-08-31T04:43:52.612Z,0.76
2022-08-31T04:46:20.389Z,0.71
2022-08-31T04:48:47.182Z,0.73
2022-08-31T04:51:24.907Z,0.72
2022-08-31T04:53:52.878Z,0.76
2022-08-31T04:56:21.885Z,0.80
2022-08-31T04:58:53.704Z,0.86
2022-08-31T05:01:22.146Z,0.78
2022-08-31T05:03:53.168Z,0.81
2022-08-31T05:06:21.531Z,0.84
2022-08-31T05:08:48.265Z,0.88
2022-08-31T05:11:21.747Z,0.84
2022-08-31T05:13:51.080Z,0.95
2022-08-31T05:16:17.932Z,1.14
2022-08-31T05:18:46.560Z,1.13
2022-08-31T05:21:19.403Z,0.97
2022-08-31T05:23:48.148Z,1.11
2022-08-31T05:26:21.613Z,0.98
2022-08-31T05:28:51.440Z,1.06
2022-08-31T05:31:18.153Z,1.29
2022-08-31T05:33:44.831Z,5.59
2022-08-31T05:36:12.206Z,8.50
2022-08-31T05:38:39.953Z,6.36
2022-08-31T05:41:07.730Z,11.36
2022-08-31T05:43:34.742Z,5.61
2022-08-31T05:46:02.900Z,2.80
2022-08-31T05:48:34.073Z,1.89
2022-08-31T05:51:01.730Z,2.20
2022-08-31T05:53:28.375Z,1.79
2022-08-31T05:56:27.376Z,2.08
2022-08-31T05:58:55.478Z,1.90
2022-08-31T06:01:24.371Z,1.45
2022-08-31T06:03:51.474Z,2.16
2022-08-31T06:06:18.112Z,1.60
2022-08-31T06:08:44.621Z,1.60
2022-08-31T06:11:15.577Z,1.51
2022-08-31T06:13:42.199Z,1.70
2022-08-31T06:16:09.755Z,1.69
2022-08-31T06:18:38.662Z,5.75
2022-08-31T06:21:09.208Z,13.19
2022-08-31T06:23:36.750Z,3.30
2022-08-31T06:26:08.058Z,2.41
2022-08-31T06:28:34.617Z,2.39
2022-08-31T06:31:02.421Z,2.30
2022-08-31T06:33:29.468Z,1.69
2022-08-31T06:35:56.411Z,2.16
2022-08-31T06:38:24.409Z,2.06
2022-08-31T06:40:51.039Z,1.69
2022-08-31T06:43:17.839Z,1.55
2022-08-31T06:45:44.666Z,1.44
2022-08-31T06:48:11.211Z,1.36
2022-08-31T06:50:40.401Z,1.38
2022-08-31T06:53:07.150Z,1.15
2022-08-31T06:55:34.697Z,1.20
2022-08-31T06:58:01.346Z,1.21
2022-08-31T07:00:27.832Z,0.89
2022-08-31T07:02:57.666Z,1.14
2022-08-31T07:05:24.972Z,1.11
2022-08-31T07:07:51.683Z,1.21
2022-08-31T07:10:19.390Z,1.12
2022-08-31T07:12:45.990Z,0.94
2022-08-31T07:15:12.635Z,1.14
2022-08-31T07:17:39.193Z,1.16
2022-08-31T07:20:06.103Z,1.02
2022-08-31T07:22:32.720Z,0.95
2022-08-31T07:24:59.364Z,1.04
2022-08-31T07:27:25.960Z,0.95
2022-08-31T07:29:52.571Z,1.03
2022-08-31T07:32:19.181Z,1.02
2022-08-31T07:34:45.841Z,0.95
2022-08-31T07:37:31.179Z,0.96
2022-08-31T07:40:16.650Z,1.04
2022-08-31T07:42:44.996Z,0.92
2022-08-31T07:45:14.314Z,0.88
2022-08-31T07:47:47.008Z,0.91
2022-08-31T07:50:14.788Z,0.93
2022-08-31T07:52:47.278Z,0.93
2022-08-31T07:55:16.354Z,0.99
2022-08-31T07:57:44.353Z,0.96
2022-08-31T08:00:15.992Z,0.99
2022-08-31T08:02:53.312Z,1.03
2022-08-31T08:05:26.856Z,0.90
2022-08-31T08:07:56.396Z,1.03
2022-08-31T08:10:24.180Z,0.79
2022-08-31T08:13:05.977Z,0.98
2022-08-31T08:15:35.353Z,0.87
2022-08-31T08:18:03.312Z,0.88
2022-08-31T08:20:34.278Z,1.03
2022-08-31T08:23:15.405Z,1.04
2022-08-31T08:25:46.194Z,1.27
2022-08-31T08:31:05.342Z,1.05
2022-08-31T08:33:33.604Z,1.04
2022-08-31T08:36:03.094Z,0.92
2022-08-31T08:38:31.100Z,0.94
2022-08-31T08:40:59.469Z,1.00
2022-08-31T08:43:52.219Z,1.10
2022-08-31T08:47:37.618Z,1.07
2022-08-31T08:49:15.820Z,0.98
2022-08-31T08:51:43.935Z,0.88
2022-08-31T08:54:14.905Z,0.83
2022-08-31T08:56:47.833Z,1.03
2022-08-31T08:59:19.346Z,0.99
2022-08-31T09:01:48.691Z,1.09
2022-08-31T09:04:17.222Z,1.04
2022-08-31T09:07:04.899Z,1.05
2022-08-31T09:09:42.562Z,1.01
2022-08-31T09:12:30.993Z,1.13
2022-08-31T09:14:59.070Z,1.10
2022-08-31T09:17:36.795Z,1.11
2022-08-31T09:20:06.828Z,1.05
2022-08-31T09:22:47.094Z,1.10
2022-08-31T09:25:29.821Z,1.07
2022-08-31T09:27:58.670Z,1.17
2022-08-31T09:30:40.682Z,1.13
2022-08-31T09:33:16.101Z,1.10
2022-08-31T09:35:42.846Z,1.14
2022-08-31T09:38:13.970Z,1.03
2022-08-31T09:40:43.308Z,1.02
2022-08-31T09:43:27.007Z,1.35
2022-08-31T09:45:59.076Z,1.21
2022-08-31T09:48:48.457Z,1.12
2022-08-31T09:51:21.177Z,1.14
2022-08-31T09:54:06.548Z,1.11
2022-08-31T09:56:49.028Z,1.06
2022-08-31T09:59:29.092Z,1.21
2022-08-31T10:02:00.136Z,1.28
2022-08-31T10:04:30.035Z,1.05
2022-08-31T10:07:11.313Z,0.99
2022-08-31T10:09:40.708Z,1.06
2022-08-31T10:12:13.119Z,1.14
2022-08-31T10:14:52.041Z,1.08
2022-08-31T10:17:26.258Z,1.04
2022-08-31T10:20:08.935Z,1.09
2022-08-31T10:22:46.144Z,1.08
2022-08-31T10:25:40.955Z,1.05
2022-08-31T10:28:14.731Z,0.98
2022-08-31T10:31:03.216Z,0.94
2022-08-31T10:33:59.353Z,0.99
2022-08-31T10:36:36.789Z,0.95
2022-08-31T10:39:14.081Z,0.97
2022-08-31T10:41:47.576Z,0.91
2022-08-31T10:44:47.641Z,0.95
2022-08-31T10:47:21.590Z,1.20
2022-08-31T10:50:02.660Z,1.01
2022-08-31T10:52:33.414Z,1.09
2022-08-31T10:55:06.707Z,1.20
2022-08-31T10:57:36.243Z,1.27
2022-08-31T11:00:08.988Z,1.14
2022-08-31T11:02:52.935Z,1.11
2022-08-31T11:05:19.477Z,1.18
2022-08-31T11:07:46.021Z,2.31
2022-08-31T11:10:43.252Z,3.89
2022-08-31T11:13:20.722Z,4.20
2022-08-31T11:16:07.952Z,4.44
2022-08-31T11:18:40.595Z,5.58
2022-08-31T11:21:20.322Z,4.83
2022-08-31T11:23:53.315Z,4.22
2022-08-31T11:26:39.172Z,6.18
2022-08-31T11:29:14.508Z,3.18
2022-08-31T11:31:41.646Z,4.45
2022-08-31T11:34:16.379Z,4.10
2022-08-31T11:36:51.397Z,4.12
2022-08-31T11:39:26.916Z,3.04
2022-08-31T11:41:54.853Z,3.12
2022-08-31T11:44:30.530Z,3.99
2022-08-31T11:47:05.146Z,3.40
2022-08-31T11:49:50.198Z,2.73
2022-08-31T11:52:29.672Z,2.79
2022-08-31T11:55:00.475Z,2.94
2022-08-31T11:57:36.954Z,2.89
2022-08-31T12:00:18.166Z,2.90
2022-08-31T12:02:45.478Z,2.58
2022-08-31T12:05:12.985Z,2.48
2022-08-31T12:07:48.298Z,2.47
2022-08-31T12:10:14.891Z,1.97
2022-08-31T12:12:47.979Z,1.84
2022-08-31T12:15:20.524Z,1.85
2022-08-31T12:17:57.640Z,1.81
2022-08-31T12:20:56.636Z,1.61
2022-08-31T12:23:43.573Z,1.73
2022-08-31T12:26:23.148Z,1.94
2022-08-31T12:28:49.922Z,1.91
2022-08-31T12:31:18.218Z,1.43
2022-08-31T12:34:05.096Z,1.31
2022-08-31T12:36:33.865Z,1.61
2022-08-31T12:39:09.853Z,1.29
2022-08-31T12:41:51.873Z,1.17
2022-08-31T12:44:23.542Z,1.28
2022-08-31T12:46:57.699Z,1.16
2022-08-31T12:49:42.839Z,1.19
2022-08-31T12:52:27.446Z,1.23
2022-08-31T12:54:53.898Z,1.08
2022-08-31T12:57:32.075Z,1.04
2022-08-31T13:00:01.507Z,1.05
2022-08-31T13:02:32.120Z,1.13
2022-08-31T13:05:00.193Z,0.98
2022-08-31T13:07:31.697Z,0.99
2022-08-31T13:10:07.667Z,1.00
2022-08-31T13:12:34.365Z,1.13
2022-08-31T13:15:00.973Z,1.13
2022-08-31T13:17:31.163Z,0.99
2022-08-31T13:19:58.783Z,0.95
2022-08-31T13:22:34.649Z,0.95
2022-08-31T13:25:16.701Z,1.02
2022-08-31T13:27:51.378Z,0.85
2022-08-31T13:30:20.136Z,1.06
2022-08-31T13:32:50.291Z,1.00
2022-08-31T13:35:20.080Z,0.90
2022-08-31T13:38:04.248Z,0.84
2022-08-31T13:40:50.395Z,1.03
2022-08-31T13:43:27.474Z,0.98
2022-08-31T13:46:00.957Z,0.92
2022-08-31T13:48:31.307Z,0.89
2022-08-31T13:51:18.436Z,0.88
2022-08-31T13:53:46.894Z,0.85
2022-08-31T13:56:54.852Z,0.95
2022-08-31T13:59:24.120Z,0.94
2022-08-31T14:02:04.754Z,0.84
2022-08-31T14:04:44.078Z,0.98
2022-08-31T14:07:21.332Z,0.96
2022-08-31T14:09:51.020Z,0.91
2022-08-31T14:12:35.001Z,1.01
2022-08-31T14:15:10.806Z,0.86
2022-08-31T14:17:43.139Z,1.08
2022-08-31T14:20:33.807Z,0.97
2022-08-31T14:23:18.738Z,0.99
2022-08-31T14:25:45.703Z,1.03
2022-08-31T14:28:12.997Z,1.00
2022-08-31T14:30:40.671Z,1.07
2022-08-31T14:33:12.358Z,0.88
2022-08-31T14:35:40.801Z,0.96
2022-08-31T14:38:07.366Z,0.96
2022-08-31T14:40:35.990Z,1.07
2022-08-31T14:43:02.791Z,1.12
2022-08-31T14:45:29.329Z,1.10
2022-08-31T14:47:56.074Z,0.98
2022-08-31T14:50:25.489Z,1.01
2022-08-31T14:52:53.042Z,0.94
2022-08-31T14:55:21.270Z,0.94
2022-08-31T14:57:55.621Z,0.95
2022-08-31T15:00:23.269Z,0.88
2022-08-31T15:02:53.323Z,0.94
2022-08-31T15:05:24.350Z,0.91
2022-08-31T15:07:53.082Z,0.90
2022-08-31T15:10:21.401Z,0.92
2022-08-31T15:12:48.869Z,0.91
2022-08-31T15:15:20.538Z,0.89
2022-08-31T15:17:49.266Z,1.00
2022-08-31T15:20:21.091Z,1.09
2022-08-31T15:22:48.402Z,1.35
2022-08-31T15:25:15.842Z,1.02
2022-08-31T15:27:46.643Z,1.00
2022-08-31T15:30:15.982Z,0.97
2022-08-31T15:32:45.287Z,0.88
2022-08-31T15:35:14.279Z,0.95
2022-08-31T15:37:41.308Z,0.96
2022-08-31T15:40:10.898Z,0.84
2022-08-31T15:42:39.784Z,0.92
2022-08-31T15:45:07.113Z,1.00
2022-08-31T15:47:54.739Z,0.86
2022-08-31T15:50:27.005Z,0.99
2022-08-31T15:53:00.967Z,0.93
2022-08-31T15:55:28.019Z,0.92
2022-08-31T15:57:57.537Z,1.12
2022-08-31T16:00:25.999Z,1.45
2022-08-31T16:02:55.281Z,1.33
2022-08-31T16:05:21.953Z,1.23
2022-08-31T16:07:48.714Z,1.17
2022-08-31T16:10:19.965Z,1.08
2022-08-31T16:12:47.664Z,1.15
2022-08-31T16:15:14.941Z,1.07
2022-08-31T16:17:41.829Z,0.82
2022-08-31T16:20:09.745Z,0.94
2022-08-31T16:22:36.917Z,1.05
2022-08-31T16:25:06.660Z,0.95
2022-08-31T16:27:36.543Z,1.04
2022-08-31T16:30:04.614Z,0.91
2022-08-31T16:32:31.185Z,0.85
2022-08-31T16:34:58.374Z,0.96
2022-08-31T16:37:25.160Z,0.94
2022-08-31T16:39:51.906Z,0.87
2022-08-31T16:42:18.560Z,0.87
2022-08-31T16:44:47.982Z,1.10
2022-08-31T16:47:16.794Z,1.01
2022-08-31T16:49:44.139Z,0.94
2022-08-31T16:52:14.874Z,0.85
2022-08-31T16:54:44.385Z,0.84
2022-08-31T16:57:16.025Z,0.97
2022-08-31T16:59:43.915Z,0.81
2022-08-31T17:02:12.178Z,0.87
2022-08-31T17:04:55.766Z,0.86
2022-08-31T17:07:24.657Z,0.91
2022-08-31T17:09:56.025Z,0.84
2022-08-31T17:12:26.228Z,0.89
2022-08-31T17:14:53.148Z,0.95
2022-08-31T17:17:25.302Z,1.07
2022-08-31T17:19:53.134Z,1.14
2022-08-31T17:22:28.424Z,0.97
2022-08-31T17:24:58.239Z,1.00
2022-08-31T17:27:25.907Z,1.16
2022-08-31T17:29:53.920Z,1.06
2022-08-31T17:32:22.109Z,0.99
2022-08-31T17:34:51.800Z,1.04
2022-08-31T17:37:26.523Z,1.10
2022-08-31T17:39:53.968Z,1.10
2022-08-31T17:42:21.941Z,1.11
2022-08-31T17:44:50.846Z,1.11
2022-08-31T17:47:18.147Z,1.11
2022-08-31T17:49:46.765Z,1.06
2022-08-31T17:52:13.848Z,1.47
2022-08-31T17:54:43.275Z,1.29
2022-08-31T17:57:12.477Z,1.39
2022-08-31T17:59:41.418Z,1.36
2022-08-31T18:02:10.451Z,1.49
2022-08-31T18:04:38.101Z,1.47
2022-08-31T18:07:06.179Z,1.32
2022-08-31T18:09:34.763Z,1.27
2022-08-31T18:12:02.335Z,1.29
2022-08-31T18:14:31.233Z,1.25
2022-08-31T18:16:59.877Z,1.38
2022-08-31T18:19:28.268Z,1.57
2022-08-31T18:21:55.843Z,1.34
2022-08-31T18:24:22.870Z,1.38
2022-08-31T18:26:50.639Z,1.44
2022-08-31T18:29:22.638Z,1.27
2022-08-31T18:31:52.844Z,1.45
2022-08-31T18:34:24.199Z,1.42
2022-08-31T18:36:53.299Z,1.63
2022-08-31T18:39:50.088Z,1.52
2022-08-31T18:42:32.423Z,1.39
2022-08-31T18:45:19.339Z,1.21
2022-08-31T18:50:42.439Z,1.52
2022-08-31T18:53:11.234Z,1.54
2022-08-31T18:55:42.609Z,1.31
2022-08-31T18:58:09.762Z,1.22
2022-08-31T19:00:36.556Z,1.36
2022-08-31T19:03:03.378Z,1.49
2022-08-31T19:05:31.677Z,1.52
2022-08-31T19:08:00.475Z,1.61
2022-08-31T19:10:27.897Z,1.52
2022-08-31T19:12:57.599Z,1.64
2022-08-31T19:15:35.166Z,1.76
2022-08-31T19:18:03.573Z,1.62
2022-08-31T19:20:30.451Z,1.73
2022-08-31T19:22:57.605Z,1.68
2022-08-31T19:25:24.605Z,2.08
2022-08-31T19:27:52.015Z,2.05
2022-08-31T19:30:24.378Z,2.01
2022-08-31T19:32:53.547Z,1.96
2022-08-31T19:35:20.362Z,1.82
2022-08-31T19:37:47.516Z,1.61
2022-08-31T19:40:17.985Z,1.72
2022-08-31T19:43:41.530Z,1.83
2022-08-31T19:45:43.381Z,1.83
2022-08-31T19:48:12.181Z,1.86
2022-08-31T19:50:42.770Z,1.65
2022-08-31T19:53:12.887Z,1.68
2022-08-31T19:55:50.082Z,1.53
2022-08-31T19:58:17.963Z,1.60
2022-08-31T20:00:44.600Z,1.52
2022-08-31T20:03:15.214Z,1.53
2022-08-31T20:05:42.074Z,1.47
2022-08-31T20:08:09.740Z,1.34
2022-08-31T20:10:40.260Z,1.44
2022-08-31T20:13:08.460Z,1.44
2022-08-31T20:15:37.717Z,1.42
2022-08-31T20:18:07.956Z,1.44
2022-08-31T20:20:45.914Z,1.38
2022-08-31T20:23:17.018Z,1.45
2022-08-31T20:25:50.542Z,1.51
2022-08-31T20:28:26.361Z,1.54
2022-08-31T20:30:59.192Z,1.57
2022-08-31T20:33:27.356Z,1.69
2022-08-31T20:35:54.071Z,1.56
2022-08-31T20:38:20.690Z,1.56
2022-08-31T20:40:52.378Z,1.42
2022-08-31T20:43:21.306Z,1.42
2022-08-31T20:45:48.703Z,1.48
2022-08-31T20:48:33.788Z,1.68
2022-08-31T20:51:16.782Z,1.59
2022-08-31T20:53:44.503Z,1.56
2022-08-31T20:56:17.058Z,1.54
2022-08-31T20:58:45.543Z,1.68
2022-08-31T21:01:14.135Z,1.70
2022-08-31T21:03:41.111Z,1.64
2022-08-31T21:06:11.375Z,1.59
2022-08-31T21:08:39.206Z,1.45
2022-08-31T21:11:11.917Z,1.65
2022-08-31T21:13:40.074Z,1.66
2022-08-31T21:16:07.036Z,1.70
2022-08-31T21:18:34.860Z,1.65
2022-08-31T21:21:02.335Z,1.61
2022-08-31T21:23:31.638Z,1.53
2022-08-31T21:25:59.681Z,1.48
2022-08-31T21:28:29.102Z,1.49
2022-08-31T21:31:29.146Z,1.59
2022-08-31T21:33:58.137Z,1.54
2022-08-31T21:36:26.699Z,1.61
2022-08-31T21:38:57.329Z,1.45
2022-08-31T21:41:26.194Z,1.61
2022-08-31T21:43:53.560Z,1.62
2022-08-31T21:46:22.315Z,1.40
2022-08-31T21:48:51.130Z,1.63
2022-08-31T21:51:25.921Z,1.65
2022-08-31T21:54:01.324Z,1.59
2022-08-31T21:56:29.783Z,1.74
2022-08-31T21:58:57.551Z,1.59
2022-08-31T22:01:26.809Z,1.43
2022-08-31T22:03:58.701Z,1.58
2022-08-31T22:06:30.996Z,1.70
2022-08-31T22:09:03.657Z,2.10
2022-08-31T22:11:35.136Z,1.73
2022-08-31T22:14:01.764Z,1.56
2022-08-31T22:16:28.473Z,1.76
2022-08-31T22:19:01.708Z,1.77
2022-08-31T22:21:31.119Z,1.50
2022-08-31T22:23:59.262Z,1.57
2022-08-31T22:26:28.071Z,1.47
2022-08-31T22:28:55.484Z,1.54
2022-08-31T22:31:22.609Z,1.58
2022-08-31T22:33:49.924Z,1.44
2022-08-31T22:36:31.673Z,1.35
2022-08-31T22:38:59.601Z,1.40
2022-08-31T22:41:26.313Z,1.54
2022-08-31T22:43:52.925Z,1.58
2022-08-31T22:46:20.356Z,1.58
2022-08-31T22:48:47.569Z,1.55
2022-08-31T22:51:15.102Z,1.51
2022-08-31T22:53:43.568Z,1.49
2022-08-31T22:56:20.364Z,1.54
2022-08-31T22:58:47.212Z,1.68
2022-08-31T23:01:23.210Z,1.64
2022-08-31T23:03:51.658Z,1.53
2022-08-31T23:06:20.728Z,1.49
2022-08-31T23:08:47.780Z,1.68
2022-08-31T23:11:15.675Z,1.44
2022-08-31T23:13:57.594Z,1.53
2022-08-31T23:16:27.325Z,1.67
2022-08-31T23:18:57.592Z,1.68
2022-08-31T23:21:25.644Z,1.64
2022-08-31T23:23:53.135Z,1.53
2022-08-31T23:26:21.052Z,1.61
2022-08-31T23:28:47.656Z,1.58
2022-08-31T23:31:14.409Z,1.50
2022-08-31T23:33:41.690Z,1.48
2022-08-31T23:36:08.276Z,1.50
2022-08-31T23:38:34.915Z,1.66
2022-08-31T23:41:01.501Z,1.76
2022-08-31T23:43:29.189Z,1.59
2022-08-31T23:46:01.842Z,1.55
2022-08-31T23:48:28.818Z,1.59
2022-08-31T23:50:55.541Z,1.69
2022-08-31T23:53:22.987Z,1.70
2022-08-31T23:55:49.555Z,1.55
2022-08-31T23:58:17.504Z,1.86
